sensor_id;sensor_type;location;lat;lon;timestamp;temperature;humidity
24645;DHT22;12780;45.502;9.146;2022-07-26T00:01:42;26.50;99.90
24645;DHT22;12780;45.502;9.146;2022-07-26T00:04:08;26.50;99.90
24645;DHT22;12780;45.502;9.146;2022-07-26T00:06:34;26.50;99.90
24645;DHT22;12780;45.502;9.146;2022-07-26T00:09:00;26.50;99.90
24645;DHT22;12780;45.502;9.146;2022-07-26T00:11:26;26.50;99.90
24645;DHT22;12780;45.502;9.146;2022-07-26T00:13:53;26.40;99.90
24645;DHT22;12780;45.502;9.146;2022-07-26T00:16:18;26.40;99.90
24645;DHT22;12780;45.502;9.146;2022-07-26T00:18:44;26.40;99.90
24645;DHT22;12780;45.502;9.146;2022-07-26T00:21:11;26.40;99.90
24645;DHT22;12780;45.502;9.146;2022-07-26T00:23:37;26.40;99.90
24645;DHT22;12780;45.502;9.146;2022-07-26T00:26:03;26.40;99.90
24645;DHT22;12780;45.502;9.146;2022-07-26T00:28:29;26.30;99.90
24645;DHT22;12780;45.502;9.146;2022-07-26T00:30:54;26.30;99.90
24645;DHT22;12780;45.502;9.146;2022-07-26T00:33:20;26.30;99.90
24645;DHT22;12780;45.502;9.146;2022-07-26T00:35:45;26.20;99.90
24645;DHT22;12780;45.502;9.146;2022-07-26T00:38:11;26.20;99.90
24645;DHT22;12780;45.502;9.146;2022-07-26T00:40:37;26.10;99.90
24645;DHT22;12780;45.502;9.146;2022-07-26T00:43:02;26.10;99.90
24645;DHT22;12780;45.502;9.146;2022-07-26T00:45:28;26.10;99.90
24645;DHT22;12780;45.502;9.146;2022-07-26T00:47:54;26.10;99.90
24645;DHT22;12780;45.502;9.146;2022-07-26T00:50:19;26.10;99.90
24645;DHT22;12780;45.502;9.146;2022-07-26T00:52:46;26.10;99.90
24645;DHT22;12780;45.502;9.146;2022-07-26T00:55:13;26.20;99.90
24645;DHT22;12780;45.502;9.146;2022-07-26T00:57:40;26.20;99.90
24645;DHT22;12780;45.502;9.146;2022-07-26T01:00:09;26.20;99.90
24645;DHT22;12780;45.502;9.146;2022-07-26T01:02:35;26.10;99.90
24645;DHT22;12780;45.502;9.146;2022-07-26T01:05:00;26.10;99.90
24645;DHT22;12780;45.502;9.146;2022-07-26T01:07:27;26.00;99.90
24645;DHT22;12780;45.502;9.146;2022-07-26T01:09:53;26.00;99.90
24645;DHT22;12780;45.502;9.146;2022-07-26T01:12:19;25.90;99.90
24645;DHT22;12780;45.502;9.146;2022-07-26T01:14:45;25.90;99.90
24645;DHT22;12780;45.502;9.146;2022-07-26T01:17:13;25.90;99.90
24645;DHT22;12780;45.502;9.146;2022-07-26T01:19:40;25.90;99.90
24645;DHT22;12780;45.502;9.146;2022-07-26T01:22:06;25.90;99.90
24645;DHT22;12780;45.502;9.146;2022-07-26T01:24:32;26.00;99.90
24645;DHT22;12780;45.502;9.146;2022-07-26T01:26:57;26.00;99.90
24645;DHT22;12780;45.502;9.146;2022-07-26T01:29:24;26.00;99.90
24645;DHT22;12780;45.502;9.146;2022-07-26T01:31:50;26.00;99.90
24645;DHT22;12780;45.502;9.146;2022-07-26T01:34:16;26.00;99.90
24645;DHT22;12780;45.502;9.146;2022-07-26T01:36:42;26.00;99.90
24645;DHT22;12780;45.502;9.146;2022-07-26T01:39:08;26.00;99.90
24645;DHT22;12780;45.502;9.146;2022-07-26T01:41:34;26.00;99.90
24645;DHT22;12780;45.502;9.146;2022-07-26T01:44:00;26.00;99.90
24645;DHT22;12780;45.502;9.146;2022-07-26T01:46:26;26.00;99.90
24645;DHT22;12780;45.502;9.146;2022-07-26T01:48:51;25.90;99.90
24645;DHT22;12780;45.502;9.146;2022-07-26T01:51:17;25.80;99.90
24645;DHT22;12780;45.502;9.146;2022-07-26T01:53:43;25.70;99.90
24645;DHT22;12780;45.502;9.146;2022-07-26T01:56:12;25.70;99.90
24645;DHT22;12780;45.502;9.146;2022-07-26T01:58:38;25.70;99.90
24645;DHT22;12780;45.502;9.146;2022-07-26T02:01:05;25.70;99.90
24645;DHT22;12780;45.502;9.146;2022-07-26T02:03:30;25.70;99.90
24645;DHT22;12780;45.502;9.146;2022-07-26T02:05:56;25.70;99.90
24645;DHT22;12780;45.502;9.146;2022-07-26T02:08:21;25.70;99.90
24645;DHT22;12780;45.502;9.146;2022-07-26T02:10:47;25.70;99.90
24645;DHT22;12780;45.502;9.146;2022-07-26T02:13:30;25.70;99.90
24645;DHT22;12780;45.502;9.146;2022-07-26T02:15:57;25.70;99.90
24645;DHT22;12780;45.502;9.146;2022-07-26T02:18:27;25.70;99.90
24645;DHT22;12780;45.502;9.146;2022-07-26T02:20:54;25.70;99.90
24645;DHT22;12780;45.502;9.146;2022-07-26T02:23:20;25.70;99.90
24645;DHT22;12780;45.502;9.146;2022-07-26T02:25:46;25.70;99.90
24645;DHT22;12780;45.502;9.146;2022-07-26T02:28:12;25.60;99.90
24645;DHT22;12780;45.502;9.146;2022-07-26T02:30:38;25.70;99.90
24645;DHT22;12780;45.502;9.146;2022-07-26T02:33:03;25.70;99.90
24645;DHT22;12780;45.502;9.146;2022-07-26T02:35:29;25.70;99.90
24645;DHT22;12780;45.502;9.146;2022-07-26T02:38:03;25.70;99.90
24645;DHT22;12780;45.502;9.146;2022-07-26T02:40:30;25.60;99.90
24645;DHT22;12780;45.502;9.146;2022-07-26T02:42:56;25.50;99.90
24645;DHT22;12780;45.502;9.146;2022-07-26T02:45:21;25.50;99.90
24645;DHT22;12780;45.502;9.146;2022-07-26T02:47:48;25.30;99.90
24645;DHT22;12780;45.502;9.146;2022-07-26T02:50:18;25.30;99.90
24645;DHT22;12780;45.502;9.146;2022-07-26T02:52:45;25.40;99.90
24645;DHT22;12780;45.502;9.146;2022-07-26T02:55:19;25.40;99.90
24645;DHT22;12780;45.502;9.146;2022-07-26T02:57:46;25.40;99.90
24645;DHT22;12780;45.502;9.146;2022-07-26T03:00:13;25.50;99.90
24645;DHT22;12780;45.502;9.146;2022-07-26T03:02:39;25.50;99.90
24645;DHT22;12780;45.502;9.146;2022-07-26T03:05:05;25.50;99.90
24645;DHT22;12780;45.502;9.146;2022-07-26T03:07:32;25.50;99.90
24645;DHT22;12780;45.502;9.146;2022-07-26T03:09:58;25.50;99.90
24645;DHT22;12780;45.502;9.146;2022-07-26T03:12:25;25.50;99.90
24645;DHT22;12780;45.502;9.146;2022-07-26T03:14:51;25.40;99.90
24645;DHT22;12780;45.502;9.146;2022-07-26T03:17:17;25.50;99.90
24645;DHT22;12780;45.502;9.146;2022-07-26T03:19:43;25.50;99.90
24645;DHT22;12780;45.502;9.146;2022-07-26T03:22:09;25.50;99.90
24645;DHT22;12780;45.502;9.146;2022-07-26T03:24:35;25.60;99.90
24645;DHT22;12780;45.502;9.146;2022-07-26T03:27:00;25.60;99.90
24645;DHT22;12780;45.502;9.146;2022-07-26T03:29:26;25.60;99.90
24645;DHT22;12780;45.502;9.146;2022-07-26T03:31:52;25.70;99.90
24645;DHT22;12780;45.502;9.146;2022-07-26T03:34:18;25.70;99.90
24645;DHT22;12780;45.502;9.146;2022-07-26T03:36:43;25.60;99.90
24645;DHT22;12780;45.502;9.146;2022-07-26T03:39:09;25.60;99.90
24645;DHT22;12780;45.502;9.146;2022-07-26T03:41:35;25.60;99.90
24645;DHT22;12780;45.502;9.146;2022-07-26T03:44:01;25.60;99.90
24645;DHT22;12780;45.502;9.146;2022-07-26T03:46:27;25.70;99.90
24645;DHT22;12780;45.502;9.146;2022-07-26T03:48:52;25.70;99.90
24645;DHT22;12780;45.502;9.146;2022-07-26T03:51:18;25.70;99.90
24645;DHT22;12780;45.502;9.146;2022-07-26T03:53:43;25.70;99.90
24645;DHT22;12780;45.502;9.146;2022-07-26T03:56:09;25.70;99.90
24645;DHT22;12780;45.502;9.146;2022-07-26T03:58:54;25.80;99.90
24645;DHT22;12780;45.502;9.146;2022-07-26T04:01:20;25.70;99.90
24645;DHT22;12780;45.502;9.146;2022-07-26T04:03:45;25.70;99.90
24645;DHT22;12780;45.502;9.146;2022-07-26T04:06:11;25.80;99.90
24645;DHT22;12780;45.502;9.146;2022-07-26T04:08:37;25.80;99.90
24645;DHT22;12780;45.502;9.146;2022-07-26T04:11:02;25.80;99.90
24645;DHT22;12780;45.502;9.146;2022-07-26T04:13:28;25.80;99.90
24645;DHT22;12780;45.502;9.146;2022-07-26T04:15:54;25.80;99.90
24645;DHT22;12780;45.502;9.146;2022-07-26T04:18:20;25.80;99.90
24645;DHT22;12780;45.502;9.146;2022-07-26T04:20:46;25.80;99.90
24645;DHT22;12780;45.502;9.146;2022-07-26T04:23:12;25.80;99.90
24645;DHT22;12780;45.502;9.146;2022-07-26T04:25:37;25.80;99.90
24645;DHT22;12780;45.502;9.146;2022-07-26T04:28:03;25.80;99.90
24645;DHT22;12780;45.502;9.146;2022-07-26T04:30:29;25.80;99.90
24645;DHT22;12780;45.502;9.146;2022-07-26T04:32:54;25.90;99.90
24645;DHT22;12780;45.502;9.146;2022-07-26T04:35:20;25.90;99.90
24645;DHT22;12780;45.502;9.146;2022-07-26T04:37:46;25.90;99.90
24645;DHT22;12780;45.502;9.146;2022-07-26T04:40:17;25.90;99.90
24645;DHT22;12780;45.502;9.146;2022-07-26T04:42:43;25.90;99.90
24645;DHT22;12780;45.502;9.146;2022-07-26T04:45:09;25.80;99.90
24645;DHT22;12780;45.502;9.146;2022-07-26T04:47:39;25.80;99.90
24645;DHT22;12780;45.502;9.146;2022-07-26T04:50:05;25.80;99.90
24645;DHT22;12780;45.502;9.146;2022-07-26T04:52:31;25.80;99.90
24645;DHT22;12780;45.502;9.146;2022-07-26T04:54:57;25.70;99.90
24645;DHT22;12780;45.502;9.146;2022-07-26T04:57:22;25.60;99.90
24645;DHT22;12780;45.502;9.146;2022-07-26T04:59:48;25.60;99.90
24645;DHT22;12780;45.502;9.146;2022-07-26T05:02:14;25.60;99.90
24645;DHT22;12780;45.502;9.146;2022-07-26T05:04:40;25.60;99.90
24645;DHT22;12780;45.502;9.146;2022-07-26T05:07:09;25.70;99.90
24645;DHT22;12780;45.502;9.146;2022-07-26T05:09:35;25.70;99.90
24645;DHT22;12780;45.502;9.146;2022-07-26T05:12:01;25.70;99.90
24645;DHT22;12780;45.502;9.146;2022-07-26T05:14:26;25.70;99.90
24645;DHT22;12780;45.502;9.146;2022-07-26T05:16:52;25.70;99.90
24645;DHT22;12780;45.502;9.146;2022-07-26T05:19:18;25.70;99.90
24645;DHT22;12780;45.502;9.146;2022-07-26T05:21:43;25.70;99.90
24645;DHT22;12780;45.502;9.146;2022-07-26T05:24:09;25.60;99.90
24645;DHT22;12780;45.502;9.146;2022-07-26T05:26:34;25.70;99.90
24645;DHT22;12780;45.502;9.146;2022-07-26T05:29:00;25.70;99.90
24645;DHT22;12780;45.502;9.146;2022-07-26T05:31:26;25.80;99.90
24645;DHT22;12780;45.502;9.146;2022-07-26T05:33:51;25.90;99.90
24645;DHT22;12780;45.502;9.146;2022-07-26T05:36:17;25.90;99.90
24645;DHT22;12780;45.502;9.146;2022-07-26T05:38:43;25.90;99.90
24645;DHT22;12780;45.502;9.146;2022-07-26T05:41:09;25.90;99.90
24645;DHT22;12780;45.502;9.146;2022-07-26T05:43:35;26.00;99.90
24645;DHT22;12780;45.502;9.146;2022-07-26T05:46:01;26.00;99.90
24645;DHT22;12780;45.502;9.146;2022-07-26T05:48:27;26.10;99.90
24645;DHT22;12780;45.502;9.146;2022-07-26T05:50:53;26.10;99.90
24645;DHT22;12780;45.502;9.146;2022-07-26T05:53:19;26.10;99.90
24645;DHT22;12780;45.502;9.146;2022-07-26T05:55:44;26.10;99.90
24645;DHT22;12780;45.502;9.146;2022-07-26T05:58:10;26.10;99.90
24645;DHT22;12780;45.502;9.146;2022-07-26T06:00:35;26.20;99.90
24645;DHT22;12780;45.502;9.146;2022-07-26T06:03:01;26.30;99.90
24645;DHT22;12780;45.502;9.146;2022-07-26T06:05:45;26.30;99.90
24645;DHT22;12780;45.502;9.146;2022-07-26T06:08:11;26.40;99.90
24645;DHT22;12780;45.502;9.146;2022-07-26T06:10:37;26.40;99.90
24645;DHT22;12780;45.502;9.146;2022-07-26T06:13:02;26.40;99.90
24645;DHT22;12780;45.502;9.146;2022-07-26T06:15:28;26.60;99.90
24645;DHT22;12780;45.502;9.146;2022-07-26T06:17:53;26.60;99.90
24645;DHT22;12780;45.502;9.146;2022-07-26T06:20:19;26.70;99.90
24645;DHT22;12780;45.502;9.146;2022-07-26T06:22:45;26.80;99.90
24645;DHT22;12780;45.502;9.146;2022-07-26T06:25:11;26.80;99.90
24645;DHT22;12780;45.502;9.146;2022-07-26T06:27:36;26.80;99.90
24645;DHT22;12780;45.502;9.146;2022-07-26T06:30:03;26.90;99.90
24645;DHT22;12780;45.502;9.146;2022-07-26T06:32:28;26.90;99.90
24645;DHT22;12780;45.502;9.146;2022-07-26T06:34:54;26.90;99.90
24645;DHT22;12780;45.502;9.146;2022-07-26T06:37:20;26.90;99.90
24645;DHT22;12780;45.502;9.146;2022-07-26T06:39:45;26.90;99.90
24645;DHT22;12780;45.502;9.146;2022-07-26T06:42:11;27.00;99.90
24645;DHT22;12780;45.502;9.146;2022-07-26T06:44:37;27.10;99.90
24645;DHT22;12780;45.502;9.146;2022-07-26T06:47:02;27.10;99.90
24645;DHT22;12780;45.502;9.146;2022-07-26T06:49:28;27.10;99.90
24645;DHT22;12780;45.502;9.146;2022-07-26T06:51:54;27.20;99.90
24645;DHT22;12780;45.502;9.146;2022-07-26T06:54:22;27.30;99.90
24645;DHT22;12780;45.502;9.146;2022-07-26T06:56:49;27.40;99.90
24645;DHT22;12780;45.502;9.146;2022-07-26T06:59:14;27.50;99.90
24645;DHT22;12780;45.502;9.146;2022-07-26T07:01:40;27.60;99.90
24645;DHT22;12780;45.502;9.146;2022-07-26T07:04:06;27.70;99.90
24645;DHT22;12780;45.502;9.146;2022-07-26T07:06:31;27.70;99.90
24645;DHT22;12780;45.502;9.146;2022-07-26T07:08:57;27.70;99.90
24645;DHT22;12780;45.502;9.146;2022-07-26T07:11:23;27.80;99.90
24645;DHT22;12780;45.502;9.146;2022-07-26T07:13:48;27.90;99.90
24645;DHT22;12780;45.502;9.146;2022-07-26T07:16:14;27.90;99.90
24645;DHT22;12780;45.502;9.146;2022-07-26T07:18:40;28.00;99.90
24645;DHT22;12780;45.502;9.146;2022-07-26T07:21:06;28.10;99.90
24645;DHT22;12780;45.502;9.146;2022-07-26T07:23:31;28.20;99.90
24645;DHT22;12780;45.502;9.146;2022-07-26T07:25:58;28.30;99.90
24645;DHT22;12780;45.502;9.146;2022-07-26T07:28:24;28.40;99.90
24645;DHT22;12780;45.502;9.146;2022-07-26T07:30:49;28.40;99.90
24645;DHT22;12780;45.502;9.146;2022-07-26T07:33:15;28.50;99.90
24645;DHT22;12780;45.502;9.146;2022-07-26T07:35:42;28.60;99.90
24645;DHT22;12780;45.502;9.146;2022-07-26T07:38:08;28.70;99.90
24645;DHT22;12780;45.502;9.146;2022-07-26T07:40:34;28.70;99.90
24645;DHT22;12780;45.502;9.146;2022-07-26T07:42:59;28.80;99.90
24645;DHT22;12780;45.502;9.146;2022-07-26T07:45:25;28.80;99.90
24645;DHT22;12780;45.502;9.146;2022-07-26T07:47:51;28.80;99.90
24645;DHT22;12780;45.502;9.146;2022-07-26T07:50:16;29.00;99.90
24645;DHT22;12780;45.502;9.146;2022-07-26T07:52:42;29.10;99.90
24645;DHT22;12780;45.502;9.146;2022-07-26T07:55:08;29.20;99.90
24645;DHT22;12780;45.502;9.146;2022-07-26T07:57:34;29.20;99.90
24645;DHT22;12780;45.502;9.146;2022-07-26T08:00:03;29.20;99.90
24645;DHT22;12780;45.502;9.146;2022-07-26T08:02:29;29.20;99.90
24645;DHT22;12780;45.502;9.146;2022-07-26T08:04:54;29.20;99.90
24645;DHT22;12780;45.502;9.146;2022-07-26T08:07:20;29.20;99.90
24645;DHT22;12780;45.502;9.146;2022-07-26T08:09:45;29.30;99.90
24645;DHT22;12780;45.502;9.146;2022-07-26T08:12:11;29.30;99.90
24645;DHT22;12780;45.502;9.146;2022-07-26T08:14:37;29.40;99.90
24645;DHT22;12780;45.502;9.146;2022-07-26T08:17:02;29.50;99.90
24645;DHT22;12780;45.502;9.146;2022-07-26T08:19:28;29.60;99.90
24645;DHT22;12780;45.502;9.146;2022-07-26T08:21:54;29.60;99.90
24645;DHT22;12780;45.502;9.146;2022-07-26T08:24:19;29.60;99.90
24645;DHT22;12780;45.502;9.146;2022-07-26T08:26:45;29.70;99.90
24645;DHT22;12780;45.502;9.146;2022-07-26T08:29:11;29.80;99.90
24645;DHT22;12780;45.502;9.146;2022-07-26T08:31:37;29.90;99.90
24645;DHT22;12780;45.502;9.146;2022-07-26T08:34:03;30.00;99.90
24645;DHT22;12780;45.502;9.146;2022-07-26T08:36:29;30.00;99.90
24645;DHT22;12780;45.502;9.146;2022-07-26T08:38:55;30.10;99.90
24645;DHT22;12780;45.502;9.146;2022-07-26T08:41:20;30.10;99.90
24645;DHT22;12780;45.502;9.146;2022-07-26T08:43:47;30.20;99.90
24645;DHT22;12780;45.502;9.146;2022-07-26T08:46:13;30.20;99.90
24645;DHT22;12780;45.502;9.146;2022-07-26T08:48:39;30.20;99.90
24645;DHT22;12780;45.502;9.146;2022-07-26T08:51:07;30.30;99.90
24645;DHT22;12780;45.502;9.146;2022-07-26T08:53:35;30.30;99.90
24645;DHT22;12780;45.502;9.146;2022-07-26T08:56:03;30.30;99.90
24645;DHT22;12780;45.502;9.146;2022-07-26T08:58:32;30.50;99.90
24645;DHT22;12780;45.502;9.146;2022-07-26T09:01:09;30.50;99.90
24645;DHT22;12780;45.502;9.146;2022-07-26T09:03:40;30.60;99.90
24645;DHT22;12780;45.502;9.146;2022-07-26T09:06:21;30.60;99.90
24645;DHT22;12780;45.502;9.146;2022-07-26T09:08:51;30.70;99.90
24645;DHT22;12780;45.502;9.146;2022-07-26T09:13:50;30.80;99.90
24645;DHT22;12780;45.502;9.146;2022-07-26T09:16:17;30.80;99.90
24645;DHT22;12780;45.502;9.146;2022-07-26T09:18:43;30.80;99.90
24645;DHT22;12780;45.502;9.146;2022-07-26T09:21:28;30.90;99.90
24645;DHT22;12780;45.502;9.146;2022-07-26T09:23:54;30.80;99.90
24645;DHT22;12780;45.502;9.146;2022-07-26T09:26:20;30.80;99.90
24645;DHT22;12780;45.502;9.146;2022-07-26T09:29:04;30.80;99.90
24645;DHT22;12780;45.502;9.146;2022-07-26T09:31:30;30.80;99.90
24645;DHT22;12780;45.502;9.146;2022-07-26T09:33:56;30.70;99.90
24645;DHT22;12780;45.502;9.146;2022-07-26T09:36:23;30.60;99.90
24645;DHT22;12780;45.502;9.146;2022-07-26T09:38:53;30.60;99.90
24645;DHT22;12780;45.502;9.146;2022-07-26T09:41:21;30.70;99.90
24645;DHT22;12780;45.502;9.146;2022-07-26T09:43:47;30.80;99.90
24645;DHT22;12780;45.502;9.146;2022-07-26T09:46:13;30.90;99.90
24645;DHT22;12780;45.502;9.146;2022-07-26T09:48:41;30.90;99.90
24645;DHT22;12780;45.502;9.146;2022-07-26T09:51:08;31.00;99.90
24645;DHT22;12780;45.502;9.146;2022-07-26T09:53:45;31.10;99.90
24645;DHT22;12780;45.502;9.146;2022-07-26T09:56:12;31.10;99.90
24645;DHT22;12780;45.502;9.146;2022-07-26T09:58:38;31.20;99.90
24645;DHT22;12780;45.502;9.146;2022-07-26T10:01:05;31.30;99.90
24645;DHT22;12780;45.502;9.146;2022-07-26T10:03:32;31.40;99.90
24645;DHT22;12780;45.502;9.146;2022-07-26T10:05:59;31.40;99.90
24645;DHT22;12780;45.502;9.146;2022-07-26T10:08:26;31.40;99.90
24645;DHT22;12780;45.502;9.146;2022-07-26T10:10:59;31.50;99.90
24645;DHT22;12780;45.502;9.146;2022-07-26T10:13:26;31.50;99.90
24645;DHT22;12780;45.502;9.146;2022-07-26T10:15:52;31.50;99.90
24645;DHT22;12780;45.502;9.146;2022-07-26T10:21:29;31.70;99.90
24645;DHT22;12780;45.502;9.146;2022-07-26T10:24:00;31.80;99.90
24645;DHT22;12780;45.502;9.146;2022-07-26T10:34:36;31.90;99.90
24645;DHT22;12780;45.502;9.146;2022-07-26T10:37:06;31.90;99.90
24645;DHT22;12780;45.502;9.146;2022-07-26T10:39:33;32.00;99.90
24645;DHT22;12780;45.502;9.146;2022-07-26T10:44:37;32.10;99.90
24645;DHT22;12780;45.502;9.146;2022-07-26T10:52:26;32.20;99.90
24645;DHT22;12780;45.502;9.146;2022-07-26T10:57:27;32.30;99.90
24645;DHT22;12780;45.502;9.146;2022-07-26T10:59:54;32.30;99.90
24645;DHT22;12780;45.502;9.146;2022-07-26T11:02:28;32.40;99.90
24645;DHT22;12780;45.502;9.146;2022-07-26T11:07:26;32.60;99.90
24645;DHT22;12780;45.502;9.146;2022-07-26T11:09:55;32.70;99.90
24645;DHT22;12780;45.502;9.146;2022-07-26T11:12:21;32.80;99.90
24645;DHT22;12780;45.502;9.146;2022-07-26T11:14:47;32.80;99.90
24645;DHT22;12780;45.502;9.146;2022-07-26T11:17:27;32.80;99.90
24645;DHT22;12780;45.502;9.146;2022-07-26T11:19:53;32.80;99.90
24645;DHT22;12780;45.502;9.146;2022-07-26T11:22:19;32.90;99.90
24645;DHT22;12780;45.502;9.146;2022-07-26T11:24:45;32.90;99.90
24645;DHT22;12780;45.502;9.146;2022-07-26T11:27:11;33.00;99.90
24645;DHT22;12780;45.502;9.146;2022-07-26T11:29:37;33.10;99.90
24645;DHT22;12780;45.502;9.146;2022-07-26T11:32:03;33.20;99.90
24645;DHT22;12780;45.502;9.146;2022-07-26T11:34:31;33.30;99.90
24645;DHT22;12780;45.502;9.146;2022-07-26T11:36:59;33.40;99.90
24645;DHT22;12780;45.502;9.146;2022-07-26T11:39:32;33.40;99.90
24645;DHT22;12780;45.502;9.146;2022-07-26T11:42:00;33.50;99.90
24645;DHT22;12780;45.502;9.146;2022-07-26T11:44:27;33.60;99.90
24645;DHT22;12780;45.502;9.146;2022-07-26T11:46:53;33.60;99.90
24645;DHT22;12780;45.502;9.146;2022-07-26T11:49:21;33.70;99.90
24645;DHT22;12780;45.502;9.146;2022-07-26T11:52:00;33.80;99.90
24645;DHT22;12780;45.502;9.146;2022-07-26T11:54:32;33.90;99.90
24645;DHT22;12780;45.502;9.146;2022-07-26T11:57:03;33.90;99.90
24645;DHT22;12780;45.502;9.146;2022-07-26T11:59:34;34.00;99.90
24645;DHT22;12780;45.502;9.146;2022-07-26T12:02:01;34.10;99.90
24645;DHT22;12780;45.502;9.146;2022-07-26T12:04:30;34.10;99.90
24645;DHT22;12780;45.502;9.146;2022-07-26T12:06:57;34.20;99.90
24645;DHT22;12780;45.502;9.146;2022-07-26T12:12:01;34.30;99.90
24645;DHT22;12780;45.502;9.146;2022-07-26T12:14:31;34.40;99.90
24645;DHT22;12780;45.502;9.146;2022-07-26T12:16:58;34.40;99.90
24645;DHT22;12780;45.502;9.146;2022-07-26T12:19:33;34.50;99.90
24645;DHT22;12780;45.502;9.146;2022-07-26T12:22:17;34.50;99.90
24645;DHT22;12780;45.502;9.146;2022-07-26T12:29:51;34.60;99.90
24645;DHT22;12780;45.502;9.146;2022-07-26T12:32:18;34.70;99.90
24645;DHT22;12780;45.502;9.146;2022-07-26T12:35:08;34.70;99.90
24645;DHT22;12780;45.502;9.146;2022-07-26T12:37:36;34.90;99.90
24645;DHT22;12780;45.502;9.146;2022-07-26T12:40:15;35.00;99.90
24645;DHT22;12780;45.502;9.146;2022-07-26T12:45:16;35.00;99.90
24645;DHT22;12780;45.502;9.146;2022-07-26T12:47:44;35.10;99.90
24645;DHT22;12780;45.502;9.146;2022-07-26T12:50:11;35.10;99.90
24645;DHT22;12780;45.502;9.146;2022-07-26T12:52:37;35.10;99.90
24645;DHT22;12780;45.502;9.146;2022-07-26T12:55:05;35.00;99.90
24645;DHT22;12780;45.502;9.146;2022-07-26T12:57:31;35.10;99.90
24645;DHT22;12780;45.502;9.146;2022-07-26T12:59:57;35.00;99.90
24645;DHT22;12780;45.502;9.146;2022-07-26T13:02:24;35.10;99.90
24645;DHT22;12780;45.502;9.146;2022-07-26T13:04:50;35.00;99.90
24645;DHT22;12780;45.502;9.146;2022-07-26T13:07:17;35.00;99.90
24645;DHT22;12780;45.502;9.146;2022-07-26T13:09:44;35.10;99.90
24645;DHT22;12780;45.502;9.146;2022-07-26T13:12:11;35.10;99.90
24645;DHT22;12780;45.502;9.146;2022-07-26T13:14:38;35.10;99.90
24645;DHT22;12780;45.502;9.146;2022-07-26T13:17:05;35.10;99.90
24645;DHT22;12780;45.502;9.146;2022-07-26T13:19:31;35.20;99.90
24645;DHT22;12780;45.502;9.146;2022-07-26T13:21:58;35.10;99.90
24645;DHT22;12780;45.502;9.146;2022-07-26T13:24:25;35.10;99.90
24645;DHT22;12780;45.502;9.146;2022-07-26T13:26:51;35.10;99.90
24645;DHT22;12780;45.502;9.146;2022-07-26T13:29:18;35.10;99.90
24645;DHT22;12780;45.502;9.146;2022-07-26T13:31:44;35.10;99.90
24645;DHT22;12780;45.502;9.146;2022-07-26T13:34:10;35.10;99.90
24645;DHT22;12780;45.502;9.146;2022-07-26T13:36:36;35.00;99.90
24645;DHT22;12780;45.502;9.146;2022-07-26T13:39:02;34.90;99.90
24645;DHT22;12780;45.502;9.146;2022-07-26T13:41:28;34.90;99.90
24645;DHT22;12780;45.502;9.146;2022-07-26T13:43:54;34.90;99.90
24645;DHT22;12780;45.502;9.146;2022-07-26T13:46:21;34.80;99.90
24645;DHT22;12780;45.502;9.146;2022-07-26T13:48:49;34.80;99.90
24645;DHT22;12780;45.502;9.146;2022-07-26T13:51:15;34.80;99.90
24645;DHT22;12780;45.502;9.146;2022-07-26T13:53:40;34.70;99.90
24645;DHT22;12780;45.502;9.146;2022-07-26T13:56:06;34.70;99.90
24645;DHT22;12780;45.502;9.146;2022-07-26T13:58:33;34.60;99.90
24645;DHT22;12780;45.502;9.146;2022-07-26T14:01:00;34.70;99.90
24645;DHT22;12780;45.502;9.146;2022-07-26T14:03:26;34.70;99.90
24645;DHT22;12780;45.502;9.146;2022-07-26T14:05:51;34.70;99.90
24645;DHT22;12780;45.502;9.146;2022-07-26T14:08:17;34.70;99.90
24645;DHT22;12780;45.502;9.146;2022-07-26T14:10:42;34.70;99.90
24645;DHT22;12780;45.502;9.146;2022-07-26T14:13:08;34.70;99.90
24645;DHT22;12780;45.502;9.146;2022-07-26T14:15:34;34.70;99.90
24645;DHT22;12780;45.502;9.146;2022-07-26T14:18:00;34.80;99.90
24645;DHT22;12780;45.502;9.146;2022-07-26T14:20:27;34.80;99.90
24645;DHT22;12780;45.502;9.146;2022-07-26T14:22:53;34.70;99.90
24645;DHT22;12780;45.502;9.146;2022-07-26T14:25:21;34.70;99.90
24645;DHT22;12780;45.502;9.146;2022-07-26T14:27:49;34.80;99.90
24645;DHT22;12780;45.502;9.146;2022-07-26T14:30:15;34.80;99.90
24645;DHT22;12780;45.502;9.146;2022-07-26T14:32:41;34.80;99.90
24645;DHT22;12780;45.502;9.146;2022-07-26T14:35:07;34.80;99.90
24645;DHT22;12780;45.502;9.146;2022-07-26T14:37:33;34.80;99.90
24645;DHT22;12780;45.502;9.146;2022-07-26T14:39:58;34.80;99.90
24645;DHT22;12780;45.502;9.146;2022-07-26T14:42:24;34.70;99.90
24645;DHT22;12780;45.502;9.146;2022-07-26T14:44:50;34.70;99.90
24645;DHT22;12780;45.502;9.146;2022-07-26T14:47:15;34.70;99.90
24645;DHT22;12780;45.502;9.146;2022-07-26T14:49:41;34.70;99.90
24645;DHT22;12780;45.502;9.146;2022-07-26T14:52:07;34.70;99.90
24645;DHT22;12780;45.502;9.146;2022-07-26T14:54:32;34.70;99.90
24645;DHT22;12780;45.502;9.146;2022-07-26T14:56:58;34.80;99.90
24645;DHT22;12780;45.502;9.146;2022-07-26T14:59:24;34.80;99.90
24645;DHT22;12780;45.502;9.146;2022-07-26T15:01:50;34.80;99.90
24645;DHT22;12780;45.502;9.146;2022-07-26T15:04:15;34.70;99.90
24645;DHT22;12780;45.502;9.146;2022-07-26T15:06:41;34.70;99.90
24645;DHT22;12780;45.502;9.146;2022-07-26T15:09:07;34.60;99.90
24645;DHT22;12780;45.502;9.146;2022-07-26T15:11:33;34.60;99.90
24645;DHT22;12780;45.502;9.146;2022-07-26T15:13:59;34.60;99.90
24645;DHT22;12780;45.502;9.146;2022-07-26T15:16:24;34.70;99.90
24645;DHT22;12780;45.502;9.146;2022-07-26T15:18:50;34.80;99.90
24645;DHT22;12780;45.502;9.146;2022-07-26T15:21:16;34.70;99.90
24645;DHT22;12780;45.502;9.146;2022-07-26T15:23:42;34.70;99.90
24645;DHT22;12780;45.502;9.146;2022-07-26T15:26:08;34.70;99.90
24645;DHT22;12780;45.502;9.146;2022-07-26T15:28:33;34.60;99.90
24645;DHT22;12780;45.502;9.146;2022-07-26T15:30:59;34.60;99.90
24645;DHT22;12780;45.502;9.146;2022-07-26T15:33:25;34.60;99.90
24645;DHT22;12780;45.502;9.146;2022-07-26T15:35:51;34.60;99.90
24645;DHT22;12780;45.502;9.146;2022-07-26T15:38:20;34.60;99.90
24645;DHT22;12780;45.502;9.146;2022-07-26T15:40:46;34.60;99.90
24645;DHT22;12780;45.502;9.146;2022-07-26T15:43:19;34.60;99.90
24645;DHT22;12780;45.502;9.146;2022-07-26T15:45:45;34.60;99.90
24645;DHT22;12780;45.502;9.146;2022-07-26T15:48:11;34.60;99.90
24645;DHT22;12780;45.502;9.146;2022-07-26T15:50:37;34.60;99.90
24645;DHT22;12780;45.502;9.146;2022-07-26T15:53:03;34.70;99.90
24645;DHT22;12780;45.502;9.146;2022-07-26T15:55:31;34.70;99.90
24645;DHT22;12780;45.502;9.146;2022-07-26T15:57:56;34.70;99.90
24645;DHT22;12780;45.502;9.146;2022-07-26T16:00:22;34.80;99.90
24645;DHT22;12780;45.502;9.146;2022-07-26T16:02:48;34.80;99.90
24645;DHT22;12780;45.502;9.146;2022-07-26T16:05:14;34.80;99.90